Time;durP1;ratioP1;P1;durP2;ratioP2;P2;SDS_P1;SDS_P2;PMS_P1;PMS_P2;Temp;Humidity;BMP_temperature;BMP_pressure;BME280_temperature;BME280_humidity;BME280_pressure;Samples;Min_cycle;Max_cycle;Signal;HPM_P1;HPM_P2
2023/05/21 00:02:10;;;;;;;1.50;1.43;;;;;;;16.48;74.10;95063.13;4376460;32;20189;-65
2023/05/21 00:04:39;;;;;;;1.63;1.53;;;;;;;16.46;74.02;95065.34;4358762;32;20181;-65
2023/05/21 00:07:05;;;;;;;2.03;1.93;;;;;;;16.45;73.76;95060.34;4347790;32;20211;-65
2023/05/21 00:09:31;;;;;;;2.00;1.90;;;;;;;16.37;73.64;95059.34;4368897;32;20276;-65
2023/05/21 00:11:56;;;;;;;2.53;2.33;;;;;;;16.37;73.45;95054.00;4362282;32;20204;-65
2023/05/21 00:14:21;;;;;;;2.20;2.10;;;;;;;16.34;73.39;95052.00;4348898;32;20315;-65
2023/05/21 00:16:47;;;;;;;2.87;2.67;;;;;;;16.26;73.63;95055.56;4351802;32;20193;-65
2023/05/21 00:19:12;;;;;;;1.97;1.87;;;;;;;16.36;72.73;95049.75;4355250;32;20258;-65
2023/05/21 00:21:38;;;;;;;3.13;2.83;;;;;;;16.35;72.72;95048.19;4360237;32;20184;-65
2023/05/21 00:24:05;;;;;;;2.20;1.50;;;;;;;16.31;72.73;95043.84;4336921;32;20189;-65
2023/05/21 00:26:30;;;;;;;1.67;1.63;;;;;;;16.35;72.28;95048.19;4354353;32;20247;-65
2023/05/21 00:28:55;;;;;;;3.17;2.97;;;;;;;16.30;71.87;95040.38;4368380;32;20197;-65
2023/05/21 00:31:22;;;;;;;1.87;1.87;;;;;;;16.24;71.88;95038.25;4356395;32;20188;-65
2023/05/21 00:33:47;;;;;;;2.33;2.20;;;;;;;16.24;71.46;95041.72;4354409;32;20301;-65
2023/05/21 00:36:13;;;;;;;1.97;1.87;;;;;;;16.27;71.11;95041.06;4358393;32;20196;-64
2023/05/21 00:38:46;;;;;;;1.90;1.80;;;;;;;16.18;71.47;95031.59;4346105;32;20197;-65
2023/05/21 00:41:12;;;;;;;1.20;1.20;;;;;;;16.17;71.66;95041.53;4342088;32;20176;-63
2023/05/21 00:43:40;;;;;;;2.27;2.17;;;;;;;16.21;71.36;95047.72;4356161;32;20302;-65
2023/05/21 00:46:15;;;;;;;2.10;2.00;;;;;;;16.14;71.61;95037.63;4370141;32;20211;-65
2023/05/21 00:48:42;;;;;;;2.40;2.00;;;;;;;16.12;71.64;95037.16;4365063;32;20196;-65
2023/05/21 00:51:08;;;;;;;2.77;2.57;;;;;;;16.11;71.28;95034.81;4380690;32;20181;-65
2023/05/21 00:53:34;;;;;;;1.50;1.43;;;;;;;16.06;71.69;95035.03;4357824;32;20204;-65
2023/05/21 00:56:00;;;;;;;2.30;2.20;;;;;;;16.02;71.38;95028.78;4370516;32;20208;-65
2023/05/21 00:58:26;;;;;;;1.90;1.60;;;;;;;15.95;71.73;95029.38;4352914;32;20218;-65
2023/05/21 01:00:54;;;;;;;2.77;2.57;;;;;;;16.04;71.41;95021.22;4360046;32;20273;-65
2023/05/21 01:03:21;;;;;;;1.83;1.73;;;;;;;16.03;70.72;95027.66;4372712;32;20230;-65
2023/05/21 01:05:49;;;;;;;1.80;1.70;;;;;;;15.99;71.38;95024.13;4369151;32;20185;-65
2023/05/21 01:08:15;;;;;;;2.30;2.10;;;;;;;15.93;70.65;95022.78;4374389;32;20205;-65
2023/05/21 01:10:40;;;;;;;1.90;1.80;;;;;;;15.96;70.90;95027.47;4370492;32;20207;-65
2023/05/21 01:13:06;;;;;;;2.03;1.93;;;;;;;15.97;70.61;95026.34;4365715;32;20269;-66
2023/05/21 01:15:31;;;;;;;1.47;1.47;;;;;;;15.93;70.78;95023.56;4367620;32;21890;-65
2023/05/21 01:17:57;;;;;;;2.77;2.57;;;;;;;15.75;71.30;95019.53;4335238;32;20201;-65
2023/05/21 01:20:23;;;;;;;1.40;1.40;;;;;;;15.80;71.13;95022.75;4366198;32;20207;-65
2023/05/21 01:22:55;;;;;;;1.93;1.83;;;;;;;15.88;71.19;95017.66;4368342;32;20193;-65
2023/05/21 01:25:22;;;;;;;1.70;1.60;;;;;;;15.91;71.22;95022.34;4364407;32;20254;-66
2023/05/21 01:27:48;;;;;;;2.17;2.07;;;;;;;15.96;70.87;95022.13;4359647;32;20272;-65
2023/05/21 01:30:15;;;;;;;1.67;1.67;;;;;;;15.98;70.67;95027.91;4379646;32;20177;-65
2023/05/21 01:32:49;;;;;;;2.00;1.90;;;;;;;15.92;70.63;95023.91;4366350;32;20189;-65
2023/05/21 01:35:21;;;;;;;1.70;1.70;;;;;;;15.80;70.89;95025.44;4369044;32;20184;-65
2023/05/21 01:38:02;;;;;;;1.27;1.27;;;;;;;15.84;71.32;95017.53;4375844;32;20197;-66
2023/05/21 01:40:40;;;;;;;1.97;1.87;;;;;;;15.82;71.57;95012.50;4372470;32;20214;-65
2023/05/21 01:43:08;;;;;;;1.97;1.87;;;;;;;15.77;71.13;95012.75;4370221;32;20196;-65
2023/05/21 01:45:38;;;;;;;2.13;2.03;;;;;;;15.78;70.97;95013.53;4372295;32;20295;-65
2023/05/21 01:48:05;;;;;;;2.07;1.97;;;;;;;15.75;70.38;95014.19;4346920;32;20216;-65
2023/05/21 01:50:31;;;;;;;1.60;1.53;;;;;;;15.77;70.17;95017.31;4369092;32;20232;-65
2023/05/21 01:52:57;;;;;;;1.77;1.70;;;;;;;15.78;69.74;95013.53;4371567;32;20216;-65
2023/05/21 01:55:26;;;;;;;1.30;1.30;;;;;;;15.73;69.46;95006.50;4382775;32;20217;-65
2023/05/21 01:57:53;;;;;;;4.73;2.47;;;;;;;15.72;69.62;95009.50;4370978;32;20208;-65
2023/05/21 02:00:20;;;;;;;1.97;1.87;;;;;;;15.68;69.92;95008.59;4366518;32;20188;-65
2023/05/21 02:02:45;;;;;;;2.23;1.93;;;;;;;15.66;69.22;95011.59;4367212;32;20185;-64
2023/05/21 02:05:11;;;;;;;1.13;1.13;;;;;;;15.62;69.51;95013.38;4366226;32;20197;-65
2023/05/21 02:07:39;;;;;;;2.13;1.90;;;;;;;15.53;70.18;95006.56;4369353;32;20203;-65
2023/05/21 02:10:05;;;;;;;2.53;1.73;;;;;;;15.60;69.62;95007.59;4389359;32;20184;-65
2023/05/21 02:12:30;;;;;;;1.93;1.83;;;;;;;15.52;69.77;95005.00;4375019;32;20276;-65
2023/05/21 02:14:56;;;;;;;2.00;1.90;;;;;;;15.57;69.58;95010.94;4374154;32;20203;-65
2023/05/21 02:17:23;;;;;;;2.23;2.13;;;;;;;15.50;69.62;95005.31;4358476;32;20185;-65
2023/05/21 02:19:48;;;;;;;1.63;1.53;;;;;;;15.52;69.32;95008.44;4370283;32;20243;-65
2023/05/21 02:22:15;;;;;;;5.50;2.37;;;;;;;15.51;69.03;94998.88;4363332;32;20205;-64
2023/05/21 02:24:41;;;;;;;2.10;2.00;;;;;;;15.54;68.81;95008.91;4370692;32;20240;-65
2023/05/21 02:27:09;;;;;;;1.97;1.87;;;;;;;15.36;69.67;95005.62;4368474;32;20261;-65
2023/05/21 02:29:35;;;;;;;2.90;1.40;;;;;;;15.41;69.21;95005.41;4368527;32;20184;-65
2023/05/21 02:32:01;;;;;;;1.93;1.83;;;;;;;15.37;69.50;94996.50;4370327;32;20274;-65
2023/05/21 02:34:31;;;;;;;2.07;1.87;;;;;;;15.34;69.60;94999.06;4387305;32;20225;-65
2023/05/21 02:36:57;;;;;;;3.03;1.23;;;;;;;15.33;69.85;95000.16;4364006;32;20215;-65
2023/05/21 02:39:23;;;;;;;2.03;1.90;;;;;;;15.39;69.69;95007.63;4369005;32;20193;-65
2023/05/21 02:41:48;;;;;;;1.70;1.60;;;;;;;15.39;69.77;95002.28;4375935;32;20186;-65
2023/05/21 02:44:17;;;;;;;1.97;1.97;;;;;;;15.44;69.78;94999.41;4376442;32;20212;-65
2023/05/21 02:46:43;;;;;;;2.93;2.73;;;;;;;15.46;69.70;95005.19;4362813;32;20188;-64
2023/05/21 02:49:08;;;;;;;1.43;1.33;;;;;;;15.50;69.96;95002.66;4365479;32;20208;-65
2023/05/21 02:51:33;;;;;;;2.93;2.73;;;;;;;15.31;70.76;95015.75;4388196;32;20223;-65
2023/05/21 02:53:58;;;;;;;2.50;2.33;;;;;;;15.24;71.01;95010.16;4367653;32;20192;-65
2023/05/21 02:56:24;;;;;;;1.67;1.67;;;;;;;15.35;70.77;95009.41;4367868;32;20207;-65
2023/05/21 02:58:50;;;;;;;1.83;1.73;;;;;;;15.42;70.49;95011.53;4367520;32;20172;-65
2023/05/21 03:01:16;;;;;;;2.40;2.20;;;;;;;15.30;70.48;95014.97;4379439;32;20193;-65
2023/05/21 03:03:41;;;;;;;1.90;1.80;;;;;;;15.30;70.44;95009.63;4368968;32;20177;-64
2023/05/21 03:06:08;;;;;;;2.20;2.10;;;;;;;15.28;70.13;95011.06;4372418;32;20189;-65
2023/05/21 03:08:35;;;;;;;1.57;1.57;;;;;;;15.24;70.41;95000.25;4366799;32;20199;-65
2023/05/21 03:11:00;;;;;;;5.20;2.20;;;;;;;15.19;70.21;95000.44;4366638;32;20288;-65
2023/05/21 03:13:25;;;;;;;1.90;1.60;;;;;;;15.02;70.91;95001.41;4364411;32;20204;-65
2023/05/21 03:15:55;;;;;;;1.47;1.47;;;;;;;15.05;70.70;95003.41;4367874;32;20185;-65
2023/05/21 03:18:20;;;;;;;1.47;1.47;;;;;;;15.08;70.76;94997.44;4362583;32;20192;-64
2023/05/21 03:20:46;;;;;;;2.47;2.37;;;;;;;15.13;70.53;94999.91;4371767;32;20189;-65
2023/05/21 03:23:12;;;;;;;1.20;1.20;;;;;;;15.08;70.46;94996.62;4364223;32;20205;-65
2023/05/21 03:25:37;;;;;;;1.83;1.73;;;;;;;15.04;70.84;94999.19;4358767;32;20203;-66
2023/05/21 03:28:03;;;;;;;1.73;1.73;;;;;;;15.09;70.24;94999.00;4363265;32;20185;-65
2023/05/21 03:30:28;;;;;;;2.27;2.17;;;;;;;15.07;70.39;94995.06;4369536;32;20192;-65
2023/05/21 03:32:55;;;;;;;1.43;1.43;;;;;;;15.03;70.77;94997.62;4356544;32;20197;-65
2023/05/21 03:35:20;;;;;;;1.20;1.20;;;;;;;14.90;71.11;95001.37;4377306;32;20215;-65
2023/05/21 03:37:45;;;;;;;1.57;1.47;;;;;;;14.85;71.34;95000.78;4373896;32;20184;-65
2023/05/21 03:40:12;;;;;;;1.97;1.87;;;;;;;14.92;71.15;94998.38;4371215;32;20184;-65
2023/05/21 03:42:37;;;;;;;1.67;1.57;;;;;;;14.91;71.55;94997.59;4379038;32;20222;-65
2023/05/21 03:45:02;;;;;;;7.00;2.13;;;;;;;15.02;71.07;94998.72;4363651;32;20189;-65
2023/05/21 03:47:28;;;;;;;3.50;1.87;;;;;;;14.99;71.44;94994.03;4372815;32;20219;-65
2023/05/21 03:49:53;;;;;;;2.13;2.03;;;;;;;15.07;71.01;94987.84;4381824;32;20207;-65
2023/05/21 03:52:19;;;;;;;2.13;1.93;;;;;;;15.00;71.49;94984.13;4360819;32;20189;-64
2023/05/21 03:54:44;;;;;;;2.27;2.17;;;;;;;15.03;71.47;94983.47;4368729;32;20181;-64
2023/05/21 03:57:09;;;;;;;2.10;2.00;;;;;;;14.93;71.83;94987.38;4378775;32;20181;-65
2023/05/21 03:59:35;;;;;;;1.87;1.77;;;;;;;14.88;72.24;94987.56;4377902;32;20252;-65
2023/05/21 04:02:00;;;;;;;1.90;1.80;;;;;;;14.84;72.50;94989.31;4376552;32;20248;-65
2023/05/21 04:04:28;;;;;;;1.90;1.80;;;;;;;14.93;72.02;94994.59;4367314;32;20219;-65
2023/05/21 04:06:54;;;;;;;1.73;1.63;;;;;;;14.93;72.05;95000.72;4375195;32;20196;-65
2023/05/21 04:09:20;;;;;;;2.53;2.33;;;;;;;14.87;72.29;95001.25;4384912;32;20189;-65
2023/05/21 04:11:46;;;;;;;1.70;1.67;;;;;;;14.91;72.32;95000.25;4367896;32;20232;-65
2023/05/21 04:14:12;;;;;;;1.33;1.33;;;;;;;14.79;72.51;95000.19;4367083;32;20193;-66
2023/05/21 04:16:37;;;;;;;2.60;2.47;;;;;;;14.89;72.36;95001.69;4372454;32;20188;-65
2023/05/21 04:19:03;;;;;;;2.37;2.27;;;;;;;14.90;72.45;94995.25;4374243;32;20266;-65
2023/05/21 04:21:28;;;;;;;1.70;1.60;;;;;;;14.91;72.62;94999.47;4371148;32;20250;-65
2023/05/21 04:23:56;;;;;;;1.70;1.60;;;;;;;14.86;72.48;95000.47;4369250;32;20230;-65
2023/05/21 04:26:22;;;;;;;2.00;1.80;;;;;;;14.99;72.18;94998.59;4381509;32;20241;-65
2023/05/21 04:28:48;;;;;;;4.40;2.27;;;;;;;14.98;72.02;94997.03;4375670;32;20188;-65
2023/05/21 04:31:13;;;;;;;2.23;2.13;;;;;;;15.00;72.16;95003.63;4367777;32;20230;-64
2023/05/21 04:33:41;;;;;;;2.13;1.93;;;;;;;15.11;72.01;95012.81;4375823;32;20191;-66
2023/05/21 04:36:08;;;;;;;2.57;2.47;;;;;;;15.02;72.01;95012.09;4374533;32;20180;-65
2023/05/21 04:38:35;;;;;;;1.37;1.37;;;;;;;15.11;71.73;95010.13;4366893;32;20181;-65
2023/05/21 04:41:02;;;;;;;1.97;1.87;;;;;;;15.04;72.10;95009.88;4378485;32;20217;-65
2023/05/21 04:43:28;;;;;;;2.23;2.13;;;;;;;15.00;72.10;95006.28;4367218;32;20193;-65
2023/05/21 04:45:57;;;;;;;2.07;1.97;;;;;;;15.12;71.58;95008.25;4362492;32;20195;-65
2023/05/21 04:48:23;;;;;;;1.93;1.83;;;;;;;15.18;71.91;95001.56;4364994;32;20173;-65
2023/05/21 04:50:49;;;;;;;3.00;2.80;;;;;;;15.18;72.17;95012.25;4361847;32;20196;-65
2023/05/21 04:53:15;;;;;;;2.90;2.70;;;;;;;15.22;72.10;95005.12;4371551;32;20181;-65
2023/05/21 04:55:40;;;;;;;2.50;2.40;;;;;;;15.08;72.83;95018.81;4389382;32;20192;-65
2023/05/21 04:58:06;;;;;;;1.73;1.63;;;;;;;15.18;71.94;95012.25;4366246;32;20192;-65
2023/05/21 05:00:36;;;;;;;1.83;1.73;;;;;;;15.04;72.08;95011.75;4364033;32;20270;-66
2023/05/21 05:03:01;;;;;;;1.77;1.77;;;;;;;15.01;72.44;95018.53;4367574;32;20221;-65
2023/05/21 05:05:27;;;;;;;2.23;2.13;;;;;;;15.01;72.12;95023.87;4375885;32;20296;-65
2023/05/21 05:07:52;;;;;;;2.07;2.00;;;;;;;15.06;71.84;95015.66;4364073;32;20205;-65
2023/05/21 05:10:18;;;;;;;3.03;2.83;;;;;;;15.07;72.24;95009.22;4364257;32;20189;-65
2023/05/21 05:12:43;;;;;;;1.40;1.33;;;;;;;15.13;72.51;95009.81;4359943;32;20249;-65
2023/05/21 05:15:09;;;;;;;3.60;3.33;;;;;;;15.23;72.34;95013.94;4373825;32;20199;-66
2023/05/21 05:17:34;;;;;;;2.37;2.27;;;;;;;15.23;72.20;95019.28;4365814;32;20209;-65
2023/05/21 05:19:59;;;;;;;2.40;2.30;;;;;;;15.22;72.45;95017.72;4365525;32;20204;-66
2023/05/21 05:22:25;;;;;;;2.27;2.17;;;;;;;15.27;72.00;95009.50;4364664;32;20209;-66
2023/05/21 05:24:51;;;;;;;4.47;2.73;;;;;;;15.31;72.58;95013.06;4369507;32;20262;-65
2023/05/21 05:27:17;;;;;;;2.03;1.93;;;;;;;15.38;71.95;95006.06;4367338;32;20212;-66
2023/05/21 05:29:43;;;;;;;3.47;2.40;;;;;;;15.33;72.19;95008.19;4381915;32;20241;-62
2023/05/21 05:32:09;;;;;;;2.03;1.93;;;;;;;15.27;72.53;95009.50;4370774;32;20204;-65
2023/05/21 05:34:34;;;;;;;3.33;1.97;;;;;;;15.34;72.41;95010.53;4371440;32;20252;-65
2023/05/21 05:37:01;;;;;;;2.30;2.20;;;;;;;15.44;72.17;95015.44;4369306;32;20217;-65
2023/05/21 05:39:27;;;;;;;1.73;1.73;;;;;;;15.47;71.92;95014.00;4367708;32;20189;-65
2023/05/21 05:41:52;;;;;;;2.27;2.17;;;;;;;15.46;71.79;95015.13;4362373;32;20240;-65
2023/05/21 05:44:17;;;;;;;2.73;2.50;;;;;;;15.47;71.39;95016.66;4360861;32;20184;-64
2023/05/21 05:46:43;;;;;;;3.53;2.03;;;;;;;15.50;72.00;95021.38;4373501;32;20194;-65
2023/05/21 05:49:08;;;;;;;3.13;2.97;;;;;;;15.57;71.96;95018.19;4373000;32;20226;-65
2023/05/21 05:51:33;;;;;;;1.57;1.47;;;;;;;15.60;71.84;95012.94;4364224;32;20208;-65
2023/05/21 05:53:59;;;;;;;1.97;1.87;;;;;;;15.59;72.43;95021.31;4377080;32;20212;-65
2023/05/21 05:56:25;;;;;;;1.80;1.77;;;;;;;15.72;72.34;95012.97;4372640;32;20230;-65
2023/05/21 05:58:51;;;;;;;2.60;2.40;;;;;;;15.68;72.91;95014.72;4386960;32;20259;-66
2023/05/21 06:01:17;;;;;;;2.10;2.00;;;;;;;15.72;71.49;95020.97;4376745;32;20192;-65
2023/05/21 06:03:43;;;;;;;2.37;1.97;;;;;;;15.75;71.18;95024.87;4374698;32;20192;-64
2023/05/21 06:06:08;;;;;;;2.23;2.13;;;;;;;15.84;70.90;95014.84;4378814;32;20200;-66
2023/05/21 06:08:33;;;;;;;2.40;2.30;;;;;;;15.89;71.34;95024.56;4371106;32;20195;-65
2023/05/21 06:10:59;;;;;;;2.07;1.97;;;;;;;15.94;70.27;95021.66;4371839;32;20200;-65
2023/05/21 06:13:25;;;;;;;2.50;2.40;;;;;;;16.01;69.71;95027.22;4367765;32;20197;-65
2023/05/21 06:15:52;;;;;;;2.63;2.43;;;;;;;16.07;69.99;95021.31;4363104;32;20200;-65
2023/05/21 06:18:17;;;;;;;2.53;2.40;;;;;;;16.16;70.78;95023.91;4364315;32;20224;-65
2023/05/21 06:20:43;;;;;;;2.53;2.33;;;;;;;16.23;70.78;95021.41;4375406;32;20199;-64
2023/05/21 06:23:08;;;;;;;2.23;2.03;;;;;;;16.18;70.35;95023.56;4369596;32;20180;-66
2023/05/21 06:25:34;;;;;;;1.80;1.73;;;;;;;16.27;69.91;95016.19;4367415;32;20197;-65
2023/05/21 06:27:59;;;;;;;1.80;1.70;;;;;;;16.38;69.79;95028.78;4362030;32;20223;-65
2023/05/21 06:30:24;;;;;;;3.07;1.80;;;;;;;16.43;69.58;95030.44;4364207;32;20185;-65
2023/05/21 06:32:50;;;;;;;1.97;1.87;;;;;;;16.54;69.90;95028.88;4365315;32;20219;-65
2023/05/21 06:35:15;;;;;;;2.73;2.27;;;;;;;16.73;67.80;95021.03;4370639;32;20252;-65
2023/05/21 06:37:41;;;;;;;2.00;1.90;;;;;;;16.87;67.10;95026.00;4384936;32;20231;-65
2023/05/21 06:40:07;;;;;;;2.03;1.93;;;;;;;16.96;67.15;95028.56;4373678;32;20239;-65
2023/05/21 06:42:33;;;;;;;2.37;2.27;;;;;;;17.02;67.78;95022.63;4370531;32;20252;-65
2023/05/21 06:44:58;;;;;;;2.20;2.10;;;;;;;17.16;67.11;95030.25;4362041;32;20177;-65
2023/05/21 06:47:23;;;;;;;2.13;2.03;;;;;;;17.27;67.59;95023.28;4368450;32;20199;-65
2023/05/21 06:49:49;;;;;;;1.60;1.60;;;;;;;17.38;67.22;95029.72;4384000;32;20195;-65
2023/05/21 06:52:14;;;;;;;2.93;2.63;;;;;;;17.54;66.51;95021.69;4365073;32;20200;-64
2023/05/21 06:54:39;;;;;;;5.70;2.33;;;;;;;17.68;66.21;95032.00;4361586;32;20256;-66
2023/05/21 06:57:05;;;;;;;1.97;1.87;;;;;;;17.66;65.95;95024.34;4370237;32;20181;-65
2023/05/21 06:59:30;;;;;;;1.33;1.33;;;;;;;17.75;63.53;95032.97;4367821;32;20188;-65
2023/05/21 07:01:55;;;;;;;1.10;1.10;;;;;;;17.79;64.38;95039.22;4361756;32;20292;-65
2023/05/21 07:04:21;;;;;;;1.50;1.50;;;;;;;17.92;62.21;95037.22;4372364;32;20239;-65
2023/05/21 07:06:47;;;;;;;1.30;1.30;;;;;;;18.00;62.74;95040.88;4373744;32;20193;-65
2023/05/21 07:09:12;;;;;;;1.30;1.30;;;;;;;17.99;61.42;95042.00;4358383;32;20237;-63
2023/05/21 07:11:38;;;;;;;2.20;2.10;;;;;;;17.98;60.71;95046.59;4387481;32;20234;-65
2023/05/21 07:14:03;;;;;;;2.07;2.00;;;;;;;18.07;60.83;95043.72;4364324;32;20212;-65
2023/05/21 07:16:29;;;;;;;1.23;1.23;;;;;;;18.01;60.20;95042.44;4372864;32;20226;-65
2023/05/21 07:18:54;;;;;;;1.80;1.70;;;;;;;18.06;60.18;95042.94;4367072;32;20204;-65
2023/05/21 07:21:20;;;;;;;1.93;1.83;;;;;;;18.13;58.48;95043.09;4381156;32;20181;-65
2023/05/21 07:23:45;;;;;;;1.90;1.80;;;;;;;18.23;57.72;95041.03;4364605;32;20260;-65
2023/05/21 07:26:10;;;;;;;1.93;1.83;;;;;;;18.19;56.92;95047.09;4379607;32;20186;-66
2023/05/21 07:28:36;;;;;;;2.13;2.03;;;;;;;18.19;56.61;95038.25;4364169;32;20193;-66
2023/05/21 07:31:01;;;;;;;1.90;1.80;;;;;;;18.17;57.24;95043.19;4378961;32;20239;-66
2023/05/21 07:33:26;;;;;;;1.73;1.63;;;;;;;18.16;57.22;95031.66;4374026;32;20197;-66
2023/05/21 07:35:52;;;;;;;1.37;1.37;;;;;;;18.09;58.20;95039.53;4369383;32;20193;-65
2023/05/21 07:38:17;;;;;;;1.50;1.40;;;;;;;18.12;57.54;95038.06;4362123;32;20189;-65
2023/05/21 07:40:43;;;;;;;2.13;1.93;;;;;;;18.16;57.09;95042.41;4360247;32;20192;-65
2023/05/21 07:43:08;;;;;;;1.50;1.47;;;;;;;18.20;57.22;95037.13;4372860;32;20226;-66
2023/05/21 07:45:33;;;;;;;3.27;1.47;;;;;;;18.17;57.44;95029.75;4364325;32;20211;-66
2023/05/21 07:47:59;;;;;;;1.77;1.67;;;;;;;18.21;56.51;95041.38;4366378;32;20260;-66
2023/05/21 07:50:25;;;;;;;0.90;0.90;;;;;;;18.14;57.02;95041.19;4364459;32;20184;-66
2023/05/21 07:52:50;;;;;;;1.90;1.80;;;;;;;18.17;57.80;95038.59;4363910;32;20176;-66
2023/05/21 07:55:15;;;;;;;1.03;1.03;;;;;;;18.17;57.21;95040.50;4367038;32;20189;-66
2023/05/21 07:57:41;;;;;;;1.33;1.33;;;;;;;18.09;57.48;95036.88;4365089;32;20192;-66
2023/05/21 08:00:08;;;;;;;1.40;1.40;;;;;;;18.12;58.11;95035.38;4363337;32;20201;-66
2023/05/21 08:02:34;;;;;;;1.80;1.43;;;;;;;18.04;59.15;95039.06;4374088;32;20240;-66
2023/05/21 08:05:00;;;;;;;1.53;1.43;;;;;;;18.11;58.09;95039.97;4365755;32;20209;-66
2023/05/21 08:07:26;;;;;;;1.33;1.33;;;;;;;18.13;58.76;95043.09;4372044;32;20196;-66
2023/05/21 08:09:52;;;;;;;1.30;1.30;;;;;;;18.14;59.40;95038.50;4368678;32;20232;-65
2023/05/21 08:12:18;;;;;;;1.50;1.50;;;;;;;18.18;59.62;95045.53;4363141;32;20176;-66
2023/05/21 08:14:44;;;;;;;2.67;2.47;;;;;;;18.13;59.99;95045.78;4364106;32;20227;-65
2023/05/21 08:17:10;;;;;;;5.10;2.50;;;;;;;18.21;60.65;95054.81;4371810;32;20189;-66
2023/05/21 08:19:35;;;;;;;2.07;1.93;;;;;;;18.29;59.82;95051.12;4370180;32;20229;-66
2023/05/21 08:22:01;;;;;;;1.90;1.80;;;;;;;18.19;61.48;95052.47;4365053;32;20196;-66
2023/05/21 08:24:26;;;;;;;1.13;1.13;;;;;;;18.29;61.91;95050.38;4368627;32;20189;-66
2023/05/21 08:26:51;;;;;;;1.20;1.20;;;;;;;18.22;63.07;95056.34;4372453;32;20212;-66
2023/05/21 08:29:17;;;;;;;1.27;1.27;;;;;;;18.21;62.23;95060.16;4354389;32;20200;-66
2023/05/21 08:31:42;;;;;;;1.10;1.10;;;;;;;18.35;61.65;95065.88;4362979;32;20227;-66
2023/05/21 08:34:07;;;;;;;1.67;1.57;;;;;;;18.34;62.70;95058.16;4376122;32;20200;-66
2023/05/21 08:36:33;;;;;;;3.50;2.30;;;;;;;18.37;62.42;95057.47;4360663;32;20188;-66
2023/05/21 08:38:59;;;;;;;1.57;1.53;;;;;;;18.45;63.35;95057.28;4361736;32;20230;-66
2023/05/21 08:41:26;;;;;;;1.97;1.60;;;;;;;18.46;63.43;95058.06;4373813;32;20197;-66
2023/05/21 08:43:56;;;;;;;1.50;1.40;;;;;;;18.53;63.44;95058.97;4362491;32;20211;-65
2023/05/21 08:46:23;;;;;;;1.90;1.90;;;;;;;18.67;63.08;95063.94;4370659;32;20204;-66
2023/05/21 08:48:50;;;;;;;2.10;2.00;;;;;;;18.71;64.08;95061.31;4366163;32;20207;-66
2023/05/21 08:51:15;;;;;;;2.10;2.00;;;;;;;18.69;63.24;95058.22;4374451;32;20189;-65
2023/05/21 08:53:41;;;;;;;1.57;1.50;;;;;;;18.73;63.16;95062.53;4363736;32;20193;-66
2023/05/21 08:56:06;;;;;;;1.97;1.87;;;;;;;18.76;63.60;95069.09;4360530;32;20198;-66
2023/05/21 08:58:32;;;;;;;1.50;1.47;;;;;;;18.86;63.62;95058.59;4363048;32;20247;-66
2023/05/21 09:00:58;;;;;;;3.90;2.17;;;;;;;18.94;63.95;95059.50;4369577;32;20260;-66
2023/05/21 09:03:24;;;;;;;1.70;1.30;;;;;;;18.98;63.90;95059.59;4365046;32;20205;-66
2023/05/21 09:05:50;;;;;;;4.67;4.37;;;;;;;19.00;64.77;95057.31;4369770;32;20192;-66
2023/05/21 09:08:21;;;;;;;1.77;1.77;;;;;;;19.13;63.60;95059.50;4363141;32;20212;-66
2023/05/21 09:10:49;;;;;;;1.80;1.70;;;;;;;19.31;63.23;95062.56;4363901;32;20201;-66
2023/05/21 09:13:16;;;;;;;2.13;1.80;;;;;;;19.37;62.95;95060.34;4365874;32;20236;-66
2023/05/21 09:15:43;;;;;;;2.90;2.73;;;;;;;19.39;63.39;95052.72;4361512;32;20185;-65
2023/05/21 09:18:08;;;;;;;2.23;2.13;;;;;;;19.43;63.59;95053.56;4362780;32;20180;-66
2023/05/21 09:20:34;;;;;;;6.10;5.70;;;;;;;19.45;64.85;95052.06;4365279;32;20227;-66
2023/05/21 09:23:02;;;;;;;3.87;3.57;;;;;;;19.63;63.21;95062.41;4383836;32;20212;-66
2023/05/21 09:25:28;;;;;;;3.67;3.37;;;;;;;19.79;62.60;95055.78;4376063;32;20211;-66
2023/05/21 09:27:57;;;;;;;1.80;1.80;;;;;;;19.89;62.27;95049.03;4367108;32;20177;-67
2023/05/21 09:30:22;;;;;;;2.43;2.27;;;;;;;19.98;63.23;95054.16;4369286;32;20318;-66
2023/05/21 09:33:06;;;;;;;9.60;5.43;;;;;;;19.95;63.23;95055.69;4370420;32;20189;-66
2023/05/21 09:35:32;;;;;;;3.07;2.87;;;;;;;19.99;63.76;95053.03;4382607;32;20228;-66
2023/05/21 09:37:57;;;;;;;4.03;3.73;;;;;;;20.10;63.42;95048.63;4363853;32;20194;-66
2023/05/21 09:40:23;;;;;;;2.73;2.53;;;;;;;20.21;62.89;95049.56;4367603;32;20181;-66
2023/05/21 09:42:50;;;;;;;4.20;3.67;;;;;;;20.31;61.80;95048.19;4382300;32;20189;-66
2023/05/21 09:45:23;;;;;;;3.67;2.90;;;;;;;20.39;61.73;95042.53;4377818;32;20184;-66
2023/05/21 09:47:50;;;;;;;2.30;2.20;;;;;;;20.40;61.50;95052.19;4369974;32;20192;-66
2023/05/21 09:50:18;;;;;;;5.53;5.13;;;;;;;20.46;61.66;95045.34;4368505;32;20185;-66
2023/05/21 09:52:44;;;;;;;3.43;3.23;;;;;;;20.53;61.25;95042.78;4368746;32;20188;-65
2023/05/21 09:55:11;;;;;;;2.13;1.97;;;;;;;20.56;60.96;95044.75;4379928;32;20239;-66
2023/05/21 09:57:44;;;;;;;1.60;1.37;;;;;;;20.65;58.79;95043.69;4364828;32;20222;-66
2023/05/21 10:00:16;;;;;;;1.50;1.40;;;;;;;20.66;57.29;95037.16;4372548;32;20216;-66
2023/05/21 10:02:44;;;;;;;1.63;1.53;;;;;;;20.81;55.02;95038.87;4376563;32;20190;-66
2023/05/21 10:05:10;;;;;;;1.90;1.80;;;;;;;20.98;52.07;95041.06;4366650;32;20195;-66
2023/05/21 10:07:36;;;;;;;1.00;1.00;;;;;;;21.14;50.54;95041.66;4379404;32;20181;-66
2023/05/21 10:10:03;;;;;;;1.37;1.37;;;;;;;21.60;46.26;95036.00;4369707;32;20309;-66
2023/05/21 10:12:30;;;;;;;2.33;2.23;;;;;;;21.66;46.83;95039.91;4363331;32;20194;-66
2023/05/21 10:15:00;;;;;;;1.43;1.43;;;;;;;21.66;46.93;95039.91;4374117;32;20197;-66
2023/05/21 10:17:35;;;;;;;1.33;1.33;;;;;;;21.81;46.13;95040.84;4363982;32;20204;-66
2023/05/21 10:20:01;;;;;;;2.50;2.30;;;;;;;21.89;46.19;95037.81;4380393;32;20203;-66
2023/05/21 10:22:27;;;;;;;1.57;1.47;;;;;;;22.02;46.40;95041.06;4373603;32;20260;-66
2023/05/21 10:24:53;;;;;;;2.20;2.00;;;;;;;22.08;45.58;95036.84;4368175;32;20228;-66
2023/05/21 10:27:19;;;;;;;1.20;1.20;;;;;;;22.22;45.34;95036.22;4364214;32;20215;-66
2023/05/21 10:29:45;;;;;;;1.77;1.67;;;;;;;22.35;44.14;95036.69;4354079;32;20193;-66
2023/05/21 10:32:15;;;;;;;1.03;1.03;;;;;;;22.41;43.65;95046.78;4371874;32;20219;-66
2023/05/21 10:34:42;;;;;;;0.80;0.50;;;;;;;22.44;43.80;95029.81;4378104;32;20176;-66
2023/05/21 10:37:09;;;;;;;1.33;1.33;;;;;;;22.37;45.02;95028.97;4382483;32;20188;-66
2023/05/21 10:39:35;;;;;;;3.03;1.73;;;;;;;22.39;44.90;95029.38;4365459;32;20249;-66
2023/05/21 10:42:19;;;;;;;1.23;1.13;;;;;;;22.50;44.74;95028.28;4367177;32;20245;-66
2023/05/21 10:45:04;;;;;;;1.93;1.83;;;;;;;22.60;44.19;95027.59;4362973;32;20192;-65
2023/05/21 10:48:11;;;;;;;1.60;1.60;;;;;;;22.50;45.05;95031.00;4362345;32;20192;-66
2023/05/21 10:51:07;;;;;;;2.23;2.13;;;;;;;22.35;46.51;95033.97;4358039;32;20205;-66
2023/05/21 10:53:58;;;;;;;1.43;1.43;;;;;;;22.32;45.29;95019.28;4371006;32;20216;-66
2023/05/21 10:56:29;;;;;;;0.90;0.90;;;;;;;22.25;45.90;95025.41;4367501;32;20242;-66
2023/05/21 10:59:29;;;;;;;1.67;1.23;;;;;;;22.16;45.72;95024.19;4373016;32;20235;-66
2023/05/21 11:01:55;;;;;;;1.37;1.37;;;;;;;22.08;45.15;95023.34;4366192;32;20237;-66
2023/05/21 11:04:28;;;;;;;3.53;1.40;;;;;;;22.09;44.48;95024.13;4380227;32;20185;-66
2023/05/21 11:06:55;;;;;;;1.33;1.33;;;;;;;22.10;44.09;95020.28;4369768;32;20199;-66
2023/05/21 11:09:20;;;;;;;1.57;1.57;;;;;;;22.07;44.77;95027.19;4378830;32;20250;-66
2023/05/21 11:11:50;;;;;;;2.07;1.97;;;;;;;21.98;45.63;95020.53;4368079;32;20196;-66
2023/05/21 11:14:30;;;;;;;2.90;1.50;;;;;;;22.11;44.30;95021.81;4362308;32;20201;-65
2023/05/21 11:16:55;;;;;;;1.63;1.53;;;;;;;22.06;44.44;95020.22;4370086;32;20204;-66
2023/05/21 11:19:21;;;;;;;2.60;1.80;;;;;;;22.16;43.37;95019.56;4363630;32;20224;-66
2023/05/21 11:21:52;;;;;;;1.30;1.30;;;;;;;22.21;43.42;95026.56;4370073;32;20189;-66
2023/05/21 11:24:19;;;;;;;1.23;1.23;;;;;;;22.36;43.23;95019.31;4370925;32;20185;-66
2023/05/21 11:26:47;;;;;;;1.27;1.27;;;;;;;22.59;41.49;95022.56;4387722;32;20220;-65
2023/05/21 11:29:13;;;;;;;1.60;1.50;;;;;;;22.55;43.04;95017.13;4371181;32;20242;-66
2023/05/21 11:31:44;;;;;;;1.10;1.10;;;;;;;22.59;42.67;95009.81;4369250;32;20231;-65
2023/05/21 11:34:10;;;;;;;1.57;1.47;;;;;;;22.50;42.24;95016.69;4373741;32;20185;-66